Time;durP1;ratioP1;P1;durP2;ratioP2;P2;SDS_P1;SDS_P2;PMS_P1;PMS_P2;Temp;Humidity;BMP_temperature;BMP_pressure;BME280_temperature;BME280_humidity;BME280_pressure;Samples;Min_cycle;Max_cycle;Signal;HPM_P1;HPM_P2
2023/03/20 00:02:20;;;;;;;4.97;3.92;;;;;;;19.87;42.53;101837.59;5059535;28;20470;-73
2023/03/20 00:04:45;;;;;;;5.65;3.90;;;;;;;19.93;42.94;101857.75;5051770;28;20030;-73
2023/03/20 00:07:11;;;;;;;6.43;4.35;;;;;;;19.84;42.58;101829.84;5058457;28;20056;-73
2023/03/20 00:09:37;;;;;;;5.45;3.45;;;;;;;19.87;42.51;101829.50;5053574;28;20031;-72
2023/03/20 00:12:04;;;;;;;5.10;3.90;;;;;;;19.96;42.80;101852.91;5059193;28;20036;-73
2023/03/20 00:14:29;;;;;;;4.53;3.58;;;;;;;19.13;42.44;101754.13;5060294;28;20040;-73
2023/03/20 00:16:55;;;;;;;6.13;4.18;;;;;;;19.80;42.82;101836.53;5056513;28;20112;-73
2023/03/20 00:19:25;;;;;;;5.03;3.75;;;;;;;19.93;42.56;101861.31;5044130;28;20470;-73
2023/03/20 00:21:52;;;;;;;6.20;4.10;;;;;;;19.93;42.56;101860.47;5047523;28;20029;-72
2023/03/20 00:24:17;;;;;;;4.80;3.65;;;;;;;19.92;42.96;101864.13;5061266;28;20025;-72
2023/03/20 00:26:44;;;;;;;4.75;3.90;;;;;;;19.76;42.80;101845.09;5044710;28;20421;-74
2023/03/20 00:29:36;;;;;;;5.72;3.85;;;;;;;19.88;42.60;101860.91;5050201;28;20047;-74
2023/03/20 00:32:01;;;;;;;3.63;3.20;;;;;;;19.79;42.55;101851.00;5063791;28;20034;-74
2023/03/20 00:34:31;;;;;;;4.30;3.60;;;;;;;19.31;42.89;101768.50;5058707;28;20051;-73
2023/03/20 00:36:56;;;;;;;4.32;3.92;;;;;;;19.86;42.54;101853.97;5051778;28;20018;-73
2023/03/20 00:39:22;;;;;;;4.13;3.40;;;;;;;19.58;42.99;101813.50;5047366;28;20402;-72
2023/03/20 00:41:56;;;;;;;5.00;3.58;;;;;;;19.82;42.92;101858.81;5061429;28;20028;-73
2023/03/20 00:44:27;;;;;;;3.35;3.00;;;;;;;19.83;42.63;101865.06;5057684;28;20053;-72
2023/03/20 00:46:55;;;;;;;5.18;3.78;;;;;;;19.81;42.44;101862.50;5050714;28;20032;-72
2023/03/20 00:49:32;;;;;;;4.38;3.25;;;;;;;19.60;42.86;101834.91;5049178;28;20028;-72
2023/03/20 00:51:58;;;;;;;5.28;3.65;;;;;;;19.79;42.57;101874.44;5053520;28;20029;-72
2023/03/20 00:54:24;;;;;;;5.70;3.70;;;;;;;19.79;42.74;101883.38;5053239;28;20024;-73
2023/03/20 00:56:52;;;;;;;4.32;3.20;;;;;;;19.77;42.98;101868.38;5062987;28;20386;-72
2023/03/20 00:59:20;;;;;;;4.32;3.00;;;;;;;19.51;42.78;101830.44;5049802;28;20028;-73
2023/03/20 01:01:45;;;;;;;3.60;3.00;;;;;;;19.66;42.78;101845.97;5049009;28;20037;-72
2023/03/20 01:04:12;;;;;;;5.47;3.20;;;;;;;19.59;42.60;101834.06;5049126;28;20029;-73
2023/03/20 01:06:38;;;;;;;4.38;3.00;;;;;;;19.73;42.96;101865.13;5046593;28;20042;-73
2023/03/20 01:09:04;;;;;;;3.50;2.90;;;;;;;19.51;42.79;101838.53;5047685;28;20044;-74
2023/03/20 01:11:30;;;;;;;4.25;3.50;;;;;;;19.71;42.78;101870.69;5053162;28;20026;-73
2023/03/20 01:13:56;;;;;;;5.13;3.33;;;;;;;19.15;42.60;101798.78;5067351;28;20457;-72
2023/03/20 01:16:23;;;;;;;4.07;3.13;;;;;;;19.47;42.80;101849.59;5049256;28;20025;-72
2023/03/20 01:18:49;;;;;;;3.90;3.50;;;;;;;19.57;42.99;101873.81;5049908;28;20079;-73
2023/03/20 01:21:14;;;;;;;5.35;3.17;;;;;;;19.67;42.56;101892.72;5065742;28;20017;-73
2023/03/20 01:23:40;;;;;;;3.28;2.75;;;;;;;19.66;43.07;101913.41;5046700;28;20094;-74
2023/03/20 01:26:20;;;;;;;4.10;3.15;;;;;;;19.65;42.59;101917.13;5066698;28;20026;-74
2023/03/20 01:28:46;;;;;;;4.00;3.25;;;;;;;19.62;42.93;101922.81;5060648;28;20035;-73
2023/03/20 01:31:12;;;;;;;3.60;2.60;;;;;;;19.63;42.60;101924.53;5050679;28;20055;-73
2023/03/20 01:33:37;;;;;;;3.92;2.80;;;;;;;19.61;42.74;101934.59;5043479;28;20021;-72
2023/03/20 01:36:03;;;;;;;3.85;3.20;;;;;;;19.12;42.49;101846.78;5051251;28;20032;-73
2023/03/20 01:38:28;;;;;;;3.97;3.42;;;;;;;19.44;42.54;101890.34;5042635;28;20021;-73
2023/03/20 01:40:56;;;;;;;3.45;2.90;;;;;;;19.46;42.68;101898.31;5049446;28;20040;-73
2023/03/20 01:43:23;;;;;;;4.03;2.80;;;;;;;19.52;42.95;101904.94;5049646;28;20031;-73
2023/03/20 01:45:57;;;;;;;4.00;2.83;;;;;;;19.37;42.87;101886.56;5049470;28;20469;-73
2023/03/20 01:48:25;;;;;;;3.40;2.40;;;;;;;19.26;42.82;101867.00;5052514;28;20036;-73
2023/03/20 01:50:50;;;;;;;5.03;2.83;;;;;;;19.54;42.65;101914.59;5063505;28;20025;-73
2023/03/20 01:53:19;;;;;;;3.42;2.60;;;;;;;19.30;43.08;101873.81;5054460;28;20091;-73
2023/03/20 01:55:45;;;;;;;4.05;3.10;;;;;;;19.39;42.99;101892.63;5049496;28;20156;-73
2023/03/20 01:58:21;;;;;;;4.03;2.80;;;;;;;19.51;42.70;101903.25;5063108;28;20064;-73
2023/03/20 02:00:49;;;;;;;5.47;3.00;;;;;;;19.25;42.83;101863.47;5065489;28;20022;-73
2023/03/20 02:03:15;;;;;;;3.23;2.93;;;;;;;19.25;42.70;101862.63;5054029;28;20068;-73
2023/03/20 02:05:41;;;;;;;3.45;2.45;;;;;;;19.34;42.73;101894.09;5057827;28;20061;-73
2023/03/20 02:08:28;;;;;;;3.25;2.88;;;;;;;19.47;42.85;101911.63;5044631;28;20029;-74
2023/03/20 02:10:55;;;;;;;4.60;2.80;;;;;;;19.47;42.62;101925.13;5056624;28;20111;-73
2023/03/20 02:13:20;;;;;;;4.15;2.88;;;;;;;19.45;42.83;101921.75;5058192;28;20048;-72
2023/03/20 02:15:54;;;;;;;3.95;2.72;;;;;;;19.03;43.06;101839.56;5045830;28;20030;-72
2023/03/20 02:18:19;;;;;;;3.30;2.75;;;;;;;19.34;42.89;101886.84;5049158;28;20033;-73
2023/03/20 02:21:23;;;;;;;3.53;3.15;;;;;;;19.42;42.95;101883.41;5057490;28;20446;-73
2023/03/20 02:24:18;;;;;;;3.42;2.50;;;;;;;19.41;42.72;101873.59;5036173;28;20041;-73
2023/03/20 02:27:24;;;;;;;6.47;3.00;;;;;;;19.39;42.72;101887.25;5060622;28;20389;-72
2023/03/20 02:30:24;;;;;;;4.18;3.13;;;;;;;19.38;42.54;101888.25;5047735;28;20040;-72
2023/03/20 02:33:15;;;;;;;4.00;2.70;;;;;;;19.36;42.70;101865.97;5050499;28;20034;-73
2023/03/20 02:35:56;;;;;;;2.72;2.42;;;;;;;19.34;42.63;101865.28;5050216;28;20037;-72
2023/03/20 02:38:30;;;;;;;4.05;2.70;;;;;;;19.34;42.85;101851.78;5059328;28;20032;-73
2023/03/20 02:41:13;;;;;;;5.57;2.97;;;;;;;19.33;42.69;101851.97;5071243;28;20021;-73
2023/03/20 02:43:44;;;;;;;2.72;2.45;;;;;;;19.16;42.86;101821.22;5056032;28;20033;-73
2023/03/20 02:46:25;;;;;;;3.88;2.97;;;;;;;19.32;43.03;101851.06;5053548;28;20040;-74
2023/03/20 02:49:00;;;;;;;3.58;2.92;;;;;;;19.32;43.01;101842.16;5071436;28;20032;-73
2023/03/20 02:51:45;;;;;;;4.35;3.10;;;;;;;19.11;43.11;101816.25;5052382;28;20068;-73
2023/03/20 02:54:25;;;;;;;3.22;2.60;;;;;;;19.30;42.90;101855.78;5064618;28;20028;-74
2023/03/20 02:57:09;;;;;;;3.83;2.90;;;;;;;19.28;42.89;101865.84;5059864;28;20085;-73
2023/03/20 02:59:45;;;;;;;2.97;2.53;;;;;;;19.00;42.97;101823.69;5052820;28;20094;-72
2023/03/20 03:02:18;;;;;;;3.17;2.72;;;;;;;19.27;42.91;101864.16;5048349;28;20032;-73
2023/03/20 03:04:51;;;;;;;3.83;2.90;;;;;;;19.26;42.84;101856.22;5063135;28;20132;-73
2023/03/20 03:07:20;;;;;;;3.00;2.70;;;;;;;18.66;43.15;101768.44;5054295;28;20076;-73
2023/03/20 03:09:52;;;;;;;3.97;2.72;;;;;;;19.24;43.12;101861.75;5049360;28;20036;-73
2023/03/20 03:12:20;;;;;;;3.40;2.72;;;;;;;19.23;42.73;101866.28;5052865;28;20033;-73
2023/03/20 03:14:49;;;;;;;3.03;2.70;;;;;;;18.96;42.92;101817.75;5067053;28;20032;-73
2023/03/20 03:17:16;;;;;;;3.70;2.53;;;;;;;19.22;42.88;101878.09;5052768;28;20304;-74
2023/03/20 03:19:45;;;;;;;3.45;2.53;;;;;;;19.01;43.07;101825.38;5049621;28;20040;-73
2023/03/20 03:22:11;;;;;;;3.42;2.88;;;;;;;18.97;42.97;101814.88;5067470;28;20022;-73
2023/03/20 03:24:38;;;;;;;3.95;2.90;;;;;;;18.69;42.69;101762.81;5066953;28;20036;-73
2023/03/20 03:27:32;;;;;;;3.47;2.60;;;;;;;19.00;42.58;101816.47;5051433;28;20021;-74
2023/03/20 03:30:00;;;;;;;3.17;2.70;;;;;;;19.03;42.72;101818.88;5052758;28;20036;-74
2023/03/20 03:32:34;;;;;;;2.85;2.35;;;;;;;19.04;42.79;101815.16;5064032;28;20030;-73
2023/03/20 03:35:01;;;;;;;2.63;2.40;;;;;;;19.17;42.87;101822.91;5052578;28;20040;-74
2023/03/20 03:37:39;;;;;;;3.75;2.80;;;;;;;19.12;42.79;101811.75;5047176;28;20033;-74
2023/03/20 03:40:17;;;;;;;2.72;2.30;;;;;;;19.00;42.71;101786.81;5068592;28;20033;-73
2023/03/20 03:43:00;;;;;;;4.47;2.25;;;;;;;19.14;43.06;101813.28;5050374;28;20040;-73
2023/03/20 03:45:35;;;;;;;2.97;2.55;;;;;;;18.95;42.82;101781.03;5066225;28;20033;-73
2023/03/20 03:48:11;;;;;;;3.80;2.70;;;;;;;18.86;42.85;101766.59;5069579;28;20497;-73
2023/03/20 03:50:47;;;;;;;2.65;2.28;;;;;;;19.04;42.87;101781.97;5055567;28;20032;-73
2023/03/20 03:53:14;;;;;;;3.08;2.20;;;;;;;19.10;43.13;101787.59;5063628;28;20683;-74
2023/03/20 03:55:43;;;;;;;2.22;1.90;;;;;;;18.83;42.82;101752.56;5048893;28;20052;-74
2023/03/20 03:58:12;;;;;;;2.97;2.40;;;;;;;18.81;42.85;101741.06;5053145;28;20021;-74
2023/03/20 04:00:39;;;;;;;;;;;;;;;19.09;42.75;101788.63;5050988;28;20025;-73
2023/03/20 04:03:06;;;;;;;3.10;2.42;;;;;;;19.09;42.94;101787.75;5065016;28;19931;-73
2023/03/20 04:05:33;;;;;;;3.08;2.13;;;;;;;18.81;42.84;101752.69;5070128;28;20126;-72
2023/03/20 04:08:01;;;;;;;3.60;2.28;;;;;;;18.87;42.86;101764.75;5053829;28;20025;-72
2023/03/20 04:10:26;;;;;;;3.15;2.25;;;;;;;18.86;42.86;101765.72;5063918;28;20490;-72
2023/03/20 04:12:52;;;;;;;2.35;2.15;;;;;;;19.04;42.84;101798.16;5049020;28;20059;-72
2023/03/20 04:15:19;;;;;;;3.00;2.40;;;;;;;18.80;42.90;101767.16;5057883;28;20033;-73
2023/03/20 04:17:44;;;;;;;2.58;1.98;;;;;;;19.02;42.97;101806.38;5052709;28;20022;-72
2023/03/20 04:20:11;;;;;;;2.75;2.40;;;;;;;18.97;42.88;101793.34;5057742;28;20022;-73
2023/03/20 04:22:36;;;;;;;3.35;1.98;;;;;;;19.00;43.28;101792.19;5060041;28;20025;-73
2023/03/20 04:25:03;;;;;;;2.05;1.85;;;;;;;19.00;42.74;101794.91;5056803;28;20083;-73
2023/03/20 04:27:29;;;;;;;1.88;1.67;;;;;;;18.99;42.66;101790.50;5068508;28;20101;-74
2023/03/20 04:29:54;;;;;;;3.13;2.38;;;;;;;18.98;43.14;101799.56;5059538;28;20024;-72
2023/03/20 04:32:20;;;;;;;2.72;2.10;;;;;;;18.38;43.08;101692.13;5059284;28;20104;-73
2023/03/20 04:34:45;;;;;;;2.25;1.77;;;;;;;18.96;42.58;101788.94;5056495;28;20029;-73
2023/03/20 04:37:11;;;;;;;2.70;2.10;;;;;;;18.95;42.76;101781.88;5049984;28;20045;-73
2023/03/20 04:39:36;;;;;;;2.92;2.35;;;;;;;18.90;43.04;101778.78;5058125;28;20060;-73
2023/03/20 04:42:03;;;;;;;2.75;1.90;;;;;;;18.94;42.86;101780.16;5060133;28;20029;-73
2023/03/20 04:44:28;;;;;;;2.40;2.20;;;;;;;18.70;42.88;101742.09;5053701;28;20063;-74
2023/03/20 04:46:54;;;;;;;2.17;1.80;;;;;;;18.76;42.70;101748.75;5049139;28;20097;-73
2023/03/20 04:49:19;;;;;;;2.08;1.88;;;;;;;18.92;43.04;101784.00;5047837;28;20030;-72
2023/03/20 04:51:44;;;;;;;2.47;2.10;;;;;;;18.91;42.97;101791.25;5071540;28;20037;-73
2023/03/20 04:54:10;;;;;;;2.47;2.10;;;;;;;18.90;42.86;101797.63;5052621;28;20037;-73
2023/03/20 04:56:35;;;;;;;2.83;1.80;;;;;;;18.90;42.98;101791.38;5047322;28;20040;-73
2023/03/20 04:59:00;;;;;;;2.63;1.90;;;;;;;18.88;42.93;101788.84;5049007;28;20048;-74
2023/03/20 05:01:25;;;;;;;2.67;2.05;;;;;;;18.75;42.70;101774.84;5047826;28;20033;-73
2023/03/20 05:03:51;;;;;;;2.83;2.22;;;;;;;18.60;42.95;101743.94;5050107;28;20029;-72
2023/03/20 05:06:16;;;;;;;2.00;1.73;;;;;;;18.84;42.83;101781.19;5048358;28;20132;-72
2023/03/20 05:08:41;;;;;;;2.30;1.88;;;;;;;18.82;42.77;101773.28;5046526;28;20688;-73
2023/03/20 05:11:07;;;;;;;2.70;1.88;;;;;;;17.94;42.79;101631.75;5054150;28;20071;-72
2023/03/20 05:13:32;;;;;;;2.38;1.70;;;;;;;18.27;42.61;101683.41;5054749;28;20033;-73
2023/03/20 05:15:57;;;;;;;2.38;1.80;;;;;;;18.84;42.91;101779.34;5061031;28;20026;-73
2023/03/20 05:18:23;;;;;;;3.83;2.28;;;;;;;18.30;42.69;101699.22;5044920;28;20072;-73
2023/03/20 05:20:48;;;;;;;2.08;1.67;;;;;;;18.37;42.88;101708.44;5052588;28;20035;-72
2023/03/20 05:23:14;;;;;;;3.85;2.05;;;;;;;18.59;42.75;101745.78;5046630;28;20052;-72
2023/03/20 05:25:39;;;;;;;3.28;2.15;;;;;;;18.12;43.04;101667.69;5060798;28;20029;-72
2023/03/20 05:28:05;;;;;;;3.05;2.00;;;;;;;18.74;43.05;101770.47;5052212;28;20037;-73
2023/03/20 05:30:30;;;;;;;2.97;2.00;;;;;;;18.83;42.61;101782.19;5049871;28;20033;-68
2023/03/20 05:32:56;;;;;;;3.55;2.03;;;;;;;18.54;43.22;101736.44;5048229;28;20027;-69
2023/03/20 05:35:21;;;;;;;4.05;2.10;;;;;;;18.65;43.30;101752.44;5047145;28;20021;-70
2023/03/20 05:37:46;;;;;;;5.40;2.22;;;;;;;18.85;43.40;101796.34;5062059;28;20032;-70
2023/03/20 05:40:14;;;;;;;3.50;1.90;;;;;;;18.73;43.44;101775.00;5049433;28;20048;-70
2023/03/20 05:42:39;;;;;;;7.53;2.28;;;;;;;18.86;43.66;101796.22;5048432;28;20025;-68
2023/03/20 05:45:06;;;;;;;3.90;2.53;;;;;;;18.88;43.49;101794.22;5047466;28;20036;-68
2023/03/20 05:47:31;;;;;;;3.53;1.90;;;;;;;18.74;43.68;101767.75;5050543;28;20032;-68
2023/03/20 05:49:56;;;;;;;2.33;2.00;;;;;;;18.90;43.49;101791.38;5048805;28;20037;-68
2023/03/20 05:52:22;;;;;;;2.95;1.95;;;;;;;18.79;43.62;101770.00;5052018;28;20041;-69
2023/03/20 05:54:47;;;;;;;5.28;2.05;;;;;;;18.92;43.72;101792.09;5049175;28;20029;-69
2023/03/20 05:57:13;;;;;;;2.78;1.90;;;;;;;18.93;43.64;101791.09;5048288;28;20491;-68
2023/03/20 05:59:38;;;;;;;3.38;1.90;;;;;;;18.86;43.82;101788.16;5062642;28;20036;-70
2023/03/20 06:02:03;;;;;;;3.38;1.80;;;;;;;18.60;43.91;101744.78;5038413;28;20128;-70
2023/03/20 06:04:29;;;;;;;3.63;2.08;;;;;;;18.95;43.73;101797.19;5045217;28;20055;-69
2023/03/20 06:06:54;;;;;;;4.55;2.05;;;;;;;18.95;43.50;101795.34;5050000;28;20056;-68
2023/03/20 06:09:19;;;;;;;3.13;1.77;;;;;;;18.97;43.59;101800.56;5055630;28;20486;-69
2023/03/20 06:11:45;;;;;;;3.08;1.85;;;;;;;18.98;43.48;101805.81;5056844;28;20040;-70
2023/03/20 06:14:10;;;;;;;2.10;1.60;;;;;;;18.99;43.96;101798.59;5060262;28;20021;-69
2023/03/20 06:16:36;;;;;;;3.45;2.20;;;;;;;18.94;43.63;101793.63;5062828;28;20025;-68
2023/03/20 06:19:01;;;;;;;2.92;1.98;;;;;;;18.44;43.99;101699.63;5058817;28;20041;-70
2023/03/20 06:21:26;;;;;;;5.05;2.35;;;;;;;18.97;43.58;101790.63;5057223;28;20457;-69
2023/03/20 06:23:53;;;;;;;2.90;2.10;;;;;;;18.78;43.81;101753.00;5051184;28;20133;-69
2023/03/20 06:26:19;;;;;;;5.75;2.58;;;;;;;18.19;43.63;101667.97;5059886;28;20024;-70
2023/03/20 06:28:44;;;;;;;3.63;1.80;;;;;;;19.09;43.99;101807.47;5056292;28;20061;-70
2023/03/20 06:31:10;;;;;;;4.13;2.28;;;;;;;18.38;43.76;101689.44;5053723;28;20115;-70
2023/03/20 06:33:36;;;;;;;2.83;1.95;;;;;;;19.12;43.65;101803.66;5050329;28;20549;-68
2023/03/20 06:36:03;;;;;;;3.30;1.77;;;;;;;18.31;43.54;101674.00;5064572;28;20030;-68
2023/03/20 06:38:28;;;;;;;3.47;2.08;;;;;;;18.63;43.78;101722.09;5059276;28;20028;-68
2023/03/20 06:40:53;;;;;;;3.22;2.72;;;;;;;18.95;43.52;101781.03;5060433;28;20025;-68
2023/03/20 06:43:19;;;;;;;3.72;2.10;;;;;;;19.19;43.89;101812.81;5060651;28;20033;-68
2023/03/20 06:45:44;;;;;;;3.35;2.00;;;;;;;19.19;43.72;101810.13;5064531;28;20488;-69
2023/03/20 06:48:10;;;;;;;4.25;2.03;;;;;;;18.90;43.79;101759.03;5059518;28;20017;-71
2023/03/20 06:50:36;;;;;;;3.42;2.28;;;;;;;19.18;43.49;101805.75;5061116;28;20119;-69
2023/03/20 06:53:02;;;;;;;3.45;2.10;;;;;;;19.07;43.51;101787.06;5058572;28;20043;-72
2023/03/20 06:55:27;;;;;;;3.03;2.15;;;;;;;19.27;43.32;101812.09;5061207;28;20453;-72
2023/03/20 06:57:52;;;;;;;3.33;2.22;;;;;;;19.21;43.28;101797.38;5046365;28;20033;-72
2023/03/20 07:00:19;;;;;;;2.97;2.13;;;;;;;19.31;43.13;101819.72;5050187;28;20037;-72
2023/03/20 07:02:44;;;;;;;2.45;1.65;;;;;;;19.32;43.02;101826.81;5056943;28;20038;-72
2023/03/20 07:05:09;;;;;;;4.07;2.20;;;;;;;19.03;43.25;101769.47;5054917;28;20048;-72
2023/03/20 07:07:35;;;;;;;3.95;2.28;;;;;;;19.35;42.98;101818.44;5054640;28;20053;-71
2023/03/20 07:10:01;;;;;;;4.32;2.47;;;;;;;19.25;43.26;101796.06;5050044;28;20025;-73
2023/03/20 07:12:27;;;;;;;2.70;2.22;;;;;;;19.39;43.11;101821.69;5048937;28;20018;-73
2023/03/20 07:14:53;;;;;;;2.90;1.95;;;;;;;19.41;42.92;101823.25;5056595;28;20028;-74
2023/03/20 07:17:18;;;;;;;2.45;1.85;;;;;;;19.21;42.98;101791.97;5054245;28;20038;-72
2023/03/20 07:19:43;;;;;;;2.45;1.73;;;;;;;19.45;43.10;101816.56;5060949;28;20072;-73
2023/03/20 07:22:17;;;;;;;3.60;2.05;;;;;;;19.29;43.21;101794.78;5047975;28;20026;-75
2023/03/20 07:24:42;;;;;;;4.25;2.17;;;;;;;19.49;42.85;101819.78;5051757;28;20017;-74
2023/03/20 07:27:07;;;;;;;3.30;2.30;;;;;;;19.51;42.82;101812.41;5056892;28;20105;-74
2023/03/20 07:29:33;;;;;;;2.28;1.80;;;;;;;19.29;42.74;101784.00;5050991;28;20032;-74
2023/03/20 07:31:59;;;;;;;2.85;1.63;;;;;;;19.51;42.54;101816.94;5054010;28;20033;-75
2023/03/20 07:34:25;;;;;;;3.50;1.90;;;;;;;19.55;42.86;101819.19;5053315;28;20029;-72
2023/03/20 07:36:50;;;;;;;2.38;1.90;;;;;;;19.15;42.56;101744.03;5055419;28;20049;-74
2023/03/20 07:39:16;;;;;;;3.42;1.80;;;;;;;19.52;42.15;101805.16;5051838;28;20026;-74
2023/03/20 07:41:41;;;;;;;3.53;1.70;;;;;;;19.61;42.09;101821.28;5050079;28;20286;-72
2023/03/20 07:44:07;;;;;;;2.30;1.73;;;;;;;19.24;42.07;101753.91;5050147;28;20021;-74
2023/03/20 07:46:32;;;;;;;3.63;1.70;;;;;;;19.43;42.31;101783.47;5050251;28;20565;-74
2023/03/20 07:48:57;;;;;;;3.53;1.80;;;;;;;19.08;41.87;101721.38;5050423;28;20040;-74
2023/03/20 07:51:23;;;;;;;2.85;1.67;;;;;;;19.66;41.88;101824.38;5049152;28;20029;-74
2023/03/20 07:53:49;;;;;;;3.22;1.90;;;;;;;19.59;42.15;101815.19;5036160;28;20144;-75
2023/03/20 07:56:14;;;;;;;2.88;1.70;;;;;;;19.44;41.93;101785.16;5069973;28;20037;-75
2023/03/20 07:58:39;;;;;;;3.53;2.00;;;;;;;19.52;41.69;101799.75;5064982;28;20043;-74
2023/03/20 08:01:05;;;;;;;2.78;1.52;;;;;;;19.62;41.52;101808.66;5050091;28;20502;-74
2023/03/20 08:03:30;;;;;;;3.45;1.80;;;;;;;19.58;41.40;101804.53;5046128;28;20309;-74
2023/03/20 08:05:56;;;;;;;3.42;1.92;;;;;;;19.75;41.96;101824.47;5053881;28;20054;-75
2023/03/20 08:08:21;;;;;;;2.42;1.98;;;;;;;19.67;41.81;101812.63;5049541;28;20025;-75
2023/03/20 08:10:47;;;;;;;3.42;1.80;;;;;;;19.16;41.48;101735.81;5063190;28;20108;-73
2023/03/20 08:13:12;;;;;;;3.95;1.80;;;;;;;19.48;41.72;101780.31;5049195;28;20525;-74
2023/03/20 08:15:37;;;;;;;1.50;1.30;;;;;;;19.52;41.45;101775.47;5057638;28;20113;-74
2023/03/20 08:18:03;;;;;;;3.25;1.63;;;;;;;19.51;41.35;101781.88;5050996;28;20120;-73
2023/03/20 08:20:29;;;;;;;3.72;1.90;;;;;;;19.84;41.22;101823.59;5064151;28;20025;-73
2023/03/20 08:22:55;;;;;;;3.45;1.85;;;;;;;19.76;40.97;101807.31;5054258;28;20025;-74
2023/03/20 08:25:20;;;;;;;4.50;1.60;;;;;;;19.87;41.02;101820.56;5053897;28;20033;-74
2023/03/20 08:27:46;;;;;;;2.67;1.98;;;;;;;19.62;41.14;101777.13;5049520;28;20112;-75
2023/03/20 08:30:12;;;;;;;2.28;1.40;;;;;;;19.86;41.39;101814.31;5064210;28;20056;-76
2023/03/20 08:32:38;;;;;;;3.03;1.42;;;;;;;19.33;41.04;101736.84;5058276;28;20074;-75
2023/03/20 08:35:04;;;;;;;2.88;1.88;;;;;;;19.82;41.21;101801.28;5051796;28;20071;-78
2023/03/20 08:37:29;;;;;;;2.08;1.27;;;;;;;19.94;40.88;101816.25;5036528;28;20025;-77
2023/03/20 08:39:54;;;;;;;2.88;1.50;;;;;;;19.95;40.98;101820.66;5059086;28;20036;-78
2023/03/20 08:42:20;;;;;;;3.72;2.08;;;;;;;19.71;41.23;101780.78;5039947;28;20025;-76
2023/03/20 08:44:47;;;;;;;3.08;1.50;;;;;;;19.83;41.04;101802.97;5051942;28;20025;-77
2023/03/20 08:47:12;;;;;;;3.92;1.58;;;;;;;19.72;40.92;101769.84;5047565;28;20028;-80
2023/03/20 08:49:37;;;;;;;4.45;1.90;;;;;;;19.89;41.23;101799.69;5074926;28;20013;-79
2023/03/20 08:52:03;;;;;;;2.58;1.50;;;;;;;19.66;41.31;101762.34;5041353;28;20021;-78
2023/03/20 08:54:29;;;;;;;2.92;1.63;;;;;;;20.08;41.07;101822.97;5064490;28;20025;-77
2023/03/20 08:56:55;;;;;;;3.45;1.70;;;;;;;19.69;40.91;101753.09;5062209;28;20033;-74
2023/03/20 08:59:20;;;;;;;2.47;1.77;;;;;;;19.80;41.02;101773.63;5051593;28;20021;-75
2023/03/20 09:01:45;;;;;;;2.33;1.75;;;;;;;20.14;41.05;101819.66;5054317;28;20040;-74
2023/03/20 09:04:12;;;;;;;5.40;1.73;;;;;;;20.17;40.90;101816.63;5056326;28;20085;-74
2023/03/20 09:06:41;;;;;;;3.30;1.65;;;;;;;20.02;41.30;101793.91;5048385;28;20140;-75
2023/03/20 09:09:06;;;;;;;2.15;1.70;;;;;;;20.21;40.96;101826.97;5052020;28;20516;-73
2023/03/20 09:11:32;;;;;;;2.97;1.50;;;;;;;20.24;41.31;101831.22;5067364;28;20029;-71
2023/03/20 09:13:58;;;;;;;2.38;1.45;;;;;;;20.19;41.16;101814.66;5046253;28;20044;-70
2023/03/20 09:16:24;;;;;;;3.05;1.77;;;;;;;20.05;41.22;101788.19;5061941;28;20025;-70
2023/03/20 09:18:49;;;;;;;2.15;1.30;;;;;;;20.11;41.17;101779.47;5053315;28;20021;-70
2023/03/20 09:21:15;;;;;;;2.83;1.90;;;;;;;19.89;41.26;101760.03;5052644;28;20221;-72
2023/03/20 09:23:40;;;;;;;2.13;1.30;;;;;;;20.28;41.17;101804.75;5054681;28;20526;-72
2023/03/20 09:26:05;;;;;;;3.28;1.70;;;;;;;20.01;41.14;101757.09;5054569;28;20033;-71
2023/03/20 09:28:31;;;;;;;2.35;1.42;;;;;;;20.15;40.87;101776.31;5053129;28;20036;-70
2023/03/20 09:30:57;;;;;;;3.60;1.60;;;;;;;20.46;40.86;101819.09;5049078;28;20063;-71
2023/03/20 09:33:23;;;;;;;2.42;1.45;;;;;;;20.47;41.01;101813.53;5059699;28;20024;-71
2023/03/20 09:35:50;;;;;;;5.70;1.60;;;;;;;20.49;40.89;101824.22;5047710;28;20120;-70
2023/03/20 09:38:16;;;;;;;3.70;1.55;;;;;;;20.51;40.96;101824.88;5051281;28;20029;-71
2023/03/20 09:41:02;;;;;;;3.50;1.77;;;;;;;20.41;40.84;101799.81;5044286;28;20550;-72
2023/03/20 09:43:58;;;;;;;3.42;1.85;;;;;;;20.47;40.84;101810.84;5072164;28;20075;-73
2023/03/20 09:46:53;;;;;;;3.70;1.60;;;;;;;20.56;40.73;101819.88;5050312;28;20025;-74
2023/03/20 09:49:39;;;;;;;1.85;1.27;;;;;;;20.57;40.91;101818.03;5050927;28;20030;-74
2023/03/20 09:52:20;;;;;;;2.47;1.58;;;;;;;20.52;40.53;101804.13;5067864;28;20033;-73
2023/03/20 09:54:50;;;;;;;2.13;1.30;;;;;;;20.21;40.82;101761.31;5067355;28;20033;-74
2023/03/20 09:57:22;;;;;;;2.97;1.25;;;;;;;20.61;40.57;101816.72;5053912;28;20036;-72
2023/03/20 09:59:49;;;;;;;3.72;1.80;;;;;;;20.49;40.62;101796.34;5071871;28;20089;-71
2023/03/20 10:02:23;;;;;;;4.47;1.63;;;;;;;20.49;40.55;101799.91;5068345;28;20036;-73
2023/03/20 10:04:53;;;;;;;2.97;1.40;;;;;;;20.53;40.48;101803.97;5046556;28;20458;-72
2023/03/20 10:07:18;;;;;;;3.70;1.58;;;;;;;19.97;40.45;101713.41;5051808;28;20100;-73
2023/03/20 10:09:44;;;;;;;3.60;1.48;;;;;;;20.69;40.83;101819.47;5070456;28;20794;-71
2023/03/20 10:12:28;;;;;;;3.10;1.38;;;;;;;20.71;40.71;101812.03;5051698;28;20112;-72
2023/03/20 10:15:00;;;;;;;3.00;1.52;;;;;;;20.72;40.45;101819.97;5049806;28;20032;-73
2023/03/20 10:17:48;;;;;;;3.97;1.50;;;;;;;20.75;40.25;101824.22;5072342;28;20029;-71
2023/03/20 10:20:46;;;;;;;2.77;1.13;;;;;;;20.76;40.30;101828.63;5069259;28;20017;-73
2023/03/20 10:23:44;;;;;;;5.67;1.63;;;;;;;20.76;40.08;101827.78;5043131;28;20080;-72
2023/03/20 10:26:12;;;;;;;2.55;1.70;;;;;;;20.55;39.95;101795.72;5042910;28;20037;-73
2023/03/20 10:28:57;;;;;;;3.67;1.40;;;;;;;20.44;40.15;101770.63;5060309;28;20029;-72
2023/03/20 10:31:28;;;;;;;4.72;1.90;;;;;;;20.79;40.07;101824.78;5052242;28;20032;-73
2023/03/20 10:33:56;;;;;;;2.72;1.58;;;;;;;20.79;40.06;101817.50;5054954;28;20063;-72
2023/03/20 10:37:00;;;;;;;4.63;1.35;;;;;;;20.80;40.11;101821.06;5061870;28;20029;-73
2023/03/20 10:39:50;;;;;;;4.40;1.45;;;;;;;20.81;40.09;101822.72;5060475;28;20022;-72
2023/03/20 10:42:19;;;;;;;2.10;1.17;;;;;;;20.40;40.00;101747.63;5051983;28;20025;-73
2023/03/20 10:44:50;;;;;;;3.15;1.33;;;;;;;20.49;39.68;101762.09;5059422;28;20024;-74
2023/03/20 10:47:17;;;;;;;2.15;1.38;;;;;;;20.66;39.93;101787.34;5053805;28;20039;-72
2023/03/20 10:49:53;;;;;;;3.05;1.40;;;;;;;20.65;39.69;101769.47;5056625;28;20547;-71
2023/03/20 10:52:26;;;;;;;2.42;1.23;;;;;;;20.75;39.51;101785.56;5053446;28;20083;-74
2023/03/20 10:54:57;;;;;;;3.15;1.50;;;;;;;20.91;39.73;101807.28;5060988;28;20038;-72
2023/03/20 10:57:25;;;;;;;2.55;1.10;;;;;;;20.92;39.66;101812.50;5054717;28;20035;-71
2023/03/20 10:59:51;;;;;;;2.97;1.35;;;;;;;20.93;39.85;101806.09;5052130;28;20051;-74
2023/03/20 11:02:19;;;;;;;2.38;1.20;;;;;;;20.95;39.46;101804.09;5059176;28;20024;-74
2023/03/20 11:04:44;;;;;;;4.53;1.20;;;;;;;20.58;39.46;101747.63;5042509;28;20112;-73
2023/03/20 11:07:24;;;;;;;2.55;1.50;;;;;;;21.01;39.58;101808.00;5058050;28;20134;-73
2023/03/20 11:10:04;;;;;;;2.80;1.48;;;;;;;21.02;39.75;101801.56;5055443;28;20021;-74
2023/03/20 11:12:49;;;;;;;4.63;1.35;;;;;;;21.06;39.22;101810.22;5053683;28;20028;-73
2023/03/20 11:15:29;;;;;;;2.17;0.98;;;;;;;21.07;39.77;101811.91;5056883;28;20025;-74
2023/03/20 11:18:00;;;;;;;2.13;1.00;;;;;;;21.09;39.48;101802.63;5057196;28;20020;-74
2023/03/20 11:20:32;;;;;;;2.28;1.08;;;;;;;20.85;39.68;101764.66;5056926;28;20033;-74
2023/03/20 11:23:02;;;;;;;4.15;1.05;;;;;;;21.11;39.51;101811.44;5053278;28;20025;-74
2023/03/20 11:25:30;;;;;;;2.95;1.10;;;;;;;21.13;39.61;101806.72;5052971;28;20049;-74
2023/03/20 11:27:56;;;;;;;3.42;1.00;;;;;;;21.18;39.55;101807.06;5039098;28;20032;-74
2023/03/20 11:30:22;;;;;;;2.88;1.27;;;;;;;21.13;39.24;101798.59;5053440;28;20104;-73
2023/03/20 11:32:49;;;;;;;3.63;1.42;;;;;;;21.04;39.51;101780.66;5055086;28;20057;-72
2023/03/20 11:35:29;;;;;;;26.75;2.22;;;;;;;21.25;39.37;101803.72;5065127;28;20025;-72